createdAt,value
2019-05-03T00:02:03.972Z,25.68
2019-05-03T00:04:33.747Z,22.77
2019-05-03T00:07:03.631Z,22.77
2019-05-03T00:09:33.267Z,21.93
2019-05-03T00:12:02.907Z,20.75
2019-05-03T00:14:32.813Z,21.87
2019-05-03T00:17:02.540Z,18.62
2019-05-03T00:19:32.746Z,20.45
2019-05-03T00:22:02.763Z,19.65
2019-05-03T00:24:32.501Z,21.68
2019-05-03T00:27:02.133Z,21.25
2019-05-03T00:29:32.502Z,18.80
2019-05-03T00:32:02.383Z,20.02
2019-05-03T00:34:41.804Z,19.67
2019-05-03T00:37:22.179Z,19.17
2019-05-03T00:39:57.736Z,18.37
2019-05-03T00:42:27.364Z,18.55
2019-05-03T00:44:56.992Z,18.23
2019-05-03T00:47:26.742Z,17.77
2019-05-03T00:49:56.381Z,18.48
2019-05-03T00:52:26.051Z,21.35
2019-05-03T00:54:55.682Z,21.10
2019-05-03T00:57:26.122Z,19.25
2019-05-03T00:59:55.768Z,19.87
2019-05-03T01:02:26.338Z,19.50
2019-05-03T01:04:56.051Z,23.70
2019-05-03T01:07:25.731Z,20.35
2019-05-03T01:09:55.364Z,22.75
2019-05-03T01:12:25.007Z,19.85
2019-05-03T01:14:56.320Z,21.15
2019-05-03T01:17:25.952Z,21.20
2019-05-03T01:19:55.617Z,21.40
2019-05-03T01:22:25.326Z,21.12
2019-05-03T01:24:54.987Z,20.75
2019-05-03T01:27:24.764Z,22.35
2019-05-03T01:29:54.432Z,22.55
2019-05-03T01:32:24.064Z,22.93
2019-05-03T01:34:53.706Z,25.65
2019-05-03T01:37:23.371Z,26.65
2019-05-03T01:39:53.082Z,26.62
2019-05-03T01:42:22.815Z,26.35
2019-05-03T01:44:52.457Z,25.23
2019-05-03T01:47:23.745Z,24.32
2019-05-03T01:49:55.023Z,25.02
2019-05-03T01:52:26.325Z,24.10
2019-05-03T01:54:56.009Z,24.80
2019-05-03T01:57:25.683Z,26.25
2019-05-03T01:59:55.380Z,25.70
2019-05-03T02:02:42.044Z,25.05
2019-05-03T02:05:14.756Z,28.52
2019-05-03T02:07:44.877Z,25.43
2019-05-03T02:10:14.645Z,24.27
2019-05-03T02:12:44.277Z,26.33
2019-05-03T02:15:14.065Z,27.50
2019-05-03T02:17:43.686Z,25.85
2019-05-03T02:20:13.485Z,27.52
2019-05-03T02:22:43.112Z,25.12
2019-05-03T02:25:13.271Z,23.85
2019-05-03T02:27:42.905Z,26.20
2019-05-03T02:30:14.408Z,25.27
2019-05-03T02:32:44.414Z,26.82
2019-05-03T02:35:14.395Z,28.35
2019-05-03T02:37:46.054Z,24.87
2019-05-03T02:40:20.389Z,27.62
2019-05-03T02:43:06.261Z,25.77
2019-05-03T02:45:38.172Z,27.02
2019-05-03T02:48:25.762Z,25.10
2019-05-03T02:50:56.196Z,23.75
2019-05-03T02:53:26.968Z,26.37
2019-05-03T02:56:13.048Z,25.12
2019-05-03T02:58:27.972Z,26.97
2019-05-03T03:01:01.780Z,24.82
2019-05-03T03:03:36.075Z,29.00
2019-05-03T03:06:07.004Z,24.18
2019-05-03T03:08:38.987Z,23.75
2019-05-03T03:11:11.548Z,24.30
2019-05-03T03:13:45.754Z,24.72
2019-05-03T03:16:17.346Z,21.65
2019-05-03T03:18:47.212Z,24.37
2019-05-03T03:21:18.564Z,23.52
2019-05-03T03:24:07.313Z,24.70
2019-05-03T03:26:43.148Z,23.20
2019-05-03T03:29:16.093Z,28.15
2019-05-03T03:32:10.351Z,24.27
2019-05-03T03:35:00.587Z,25.95
2019-05-03T03:37:22.064Z,26.52
2019-05-03T03:39:52.806Z,25.52
2019-05-03T03:42:25.179Z,25.05
2019-05-03T03:44:57.087Z,28.05
2019-05-03T03:47:29.957Z,23.05
2019-05-03T03:50:02.137Z,27.07
2019-05-03T03:52:36.083Z,27.45
2019-05-03T03:55:07.060Z,24.80
2019-05-03T03:57:37.108Z,24.80
2019-05-03T04:00:08.929Z,22.13
2019-05-03T04:02:40.228Z,23.77
2019-05-03T04:05:10.897Z,24.27
2019-05-03T04:07:40.748Z,22.27
2019-05-03T04:10:11.890Z,26.50
2019-05-03T04:12:45.417Z,21.23
2019-05-03T04:15:29.078Z,22.02
2019-05-03T04:18:10.391Z,27.13
2019-05-03T04:20:40.164Z,24.37
2019-05-03T04:23:09.890Z,25.10
2019-05-03T04:25:40.287Z,22.90
2019-05-03T04:28:10.365Z,24.80
2019-05-03T04:30:40.071Z,26.48
2019-05-03T04:33:09.711Z,27.70
2019-05-03T04:35:39.362Z,24.87
2019-05-03T04:38:08.999Z,28.52
2019-05-03T04:40:38.722Z,22.90
2019-05-03T04:43:08.344Z,24.10
2019-05-03T04:45:37.999Z,25.23
2019-05-03T04:48:07.798Z,25.65
2019-05-03T04:50:37.459Z,25.60
2019-05-03T04:53:07.177Z,26.77
2019-05-03T04:55:36.826Z,29.75
2019-05-03T04:58:06.442Z,24.70
2019-05-03T05:00:36.283Z,26.90
2019-05-03T05:03:06.225Z,27.17
2019-05-03T05:05:36.519Z,23.90
2019-05-03T05:08:06.459Z,22.95
2019-05-03T05:10:36.489Z,27.93
2019-05-03T05:13:06.346Z,30.02
2019-05-03T05:15:36.044Z,27.77
2019-05-03T05:18:16.050Z,24.02
2019-05-03T05:20:56.696Z,24.45
2019-05-03T05:23:26.391Z,27.02
2019-05-03T05:26:05.528Z,26.25
2019-05-03T05:28:45.807Z,25.97
2019-05-03T05:31:15.544Z,24.35
2019-05-03T05:33:45.245Z,25.57
2019-05-03T05:36:15.348Z,25.62
2019-05-03T05:38:45.208Z,23.70
2019-05-03T05:41:15.619Z,28.25
2019-05-03T05:43:45.556Z,26.30
2019-05-03T05:46:15.556Z,29.82
2019-05-03T05:48:46.861Z,28.57
2019-05-03T05:51:16.499Z,25.25
2019-05-03T05:53:46.165Z,27.52
2019-05-03T05:56:35.343Z,27.73
2019-05-03T05:59:12.312Z,24.75
2019-05-03T06:01:45.490Z,24.63
2019-05-03T06:04:15.919Z,28.73
2019-05-03T06:07:04.628Z,29.63
2019-05-03T06:09:36.089Z,26.45
2019-05-03T06:12:07.421Z,27.55
2019-05-03T06:14:38.701Z,26.77
2019-05-03T06:17:18.845Z,26.05
2019-05-03T06:19:56.359Z,26.30
2019-05-03T06:22:27.615Z,24.77
2019-05-03T06:25:06.390Z,26.27
2019-05-03T06:27:37.665Z,27.60
2019-05-03T06:30:24.844Z,26.73
2019-05-03T06:32:55.118Z,29.50
2019-05-03T06:35:24.894Z,29.45
2019-05-03T06:37:54.656Z,24.87
2019-05-03T06:40:25.261Z,32.95
2019-05-03T06:43:08.656Z,27.70
2019-05-03T06:45:27.225Z,21.80
2019-05-03T06:47:56.883Z,21.27
2019-05-03T06:50:28.943Z,23.02
2019-05-03T06:52:59.836Z,19.45
2019-05-03T06:55:28.238Z,21.07
2019-05-03T06:57:57.866Z,18.82
2019-05-03T07:00:35.172Z,19.42
2019-05-03T07:03:09.249Z,20.52
2019-05-03T07:05:47.516Z,18.02
2019-05-03T07:08:34.914Z,19.65
2019-05-03T07:11:06.493Z,18.95
2019-05-03T07:13:36.122Z,20.40
2019-05-03T07:16:06.091Z,20.15
2019-05-03T07:18:35.715Z,20.75
2019-05-03T07:21:05.467Z,20.25
2019-05-03T07:23:35.186Z,21.48
2019-05-03T07:26:05.333Z,25.25
2019-05-03T07:28:46.314Z,22.20
2019-05-03T07:31:06.773Z,20.88
2019-05-03T07:33:36.760Z,19.30
2019-05-03T07:36:06.923Z,21.90
2019-05-03T07:38:36.718Z,20.48
2019-05-03T07:41:06.489Z,22.90
2019-05-03T07:43:36.282Z,22.62
2019-05-03T07:46:06.353Z,23.18
2019-05-03T07:48:36.856Z,21.50
2019-05-03T07:51:06.497Z,18.23
2019-05-03T07:53:36.120Z,17.07
2019-05-03T07:56:10.379Z,16.90
2019-05-03T08:03:46.341Z,13.55
2019-05-03T08:06:15.992Z,14.53
2019-05-03T08:08:45.617Z,13.45
2019-05-03T08:11:15.267Z,11.68
2019-05-03T08:13:44.976Z,12.68
2019-05-03T08:16:16.056Z,13.05
2019-05-03T08:18:45.925Z,11.43
2019-05-03T08:21:15.593Z,13.03
2019-05-03T08:23:45.453Z,14.45
2019-05-03T08:26:15.409Z,12.30
2019-05-03T08:28:45.251Z,14.90
2019-05-03T08:31:31.723Z,13.83
2019-05-03T08:34:01.141Z,10.70
2019-05-03T08:36:32.479Z,13.88
2019-05-03T08:39:02.154Z,14.30
2019-05-03T08:41:35.070Z,13.90
2019-05-03T08:44:05.249Z,12.93
2019-05-03T08:46:35.568Z,13.28
2019-05-03T08:49:05.370Z,13.08
2019-05-03T08:51:35.288Z,11.97
2019-05-03T08:54:04.965Z,14.40
2019-05-03T08:56:35.892Z,17.30
2019-05-03T08:59:05.544Z,13.68
2019-05-03T09:01:37.833Z,14.78
2019-05-03T09:04:06.730Z,12.82
2019-05-03T09:06:36.444Z,12.80
2019-05-03T09:09:09.547Z,14.00
2019-05-03T09:11:39.197Z,13.08
2019-05-03T09:14:10.470Z,14.40
2019-05-03T09:16:40.123Z,11.95
2019-05-03T09:19:09.738Z,11.70
2019-05-03T09:21:39.474Z,12.23
2019-05-03T09:24:09.465Z,13.05
2019-05-03T09:26:39.161Z,13.65
2019-05-03T09:29:08.944Z,11.95
2019-05-03T09:31:39.041Z,11.78
2019-05-03T09:34:08.708Z,13.78
2019-05-03T09:36:38.330Z,11.70
2019-05-03T09:39:09.423Z,11.40
2019-05-03T09:41:39.045Z,10.75
2019-05-03T09:44:08.706Z,11.48
2019-05-03T09:46:38.324Z,9.38
2019-05-03T09:49:13.158Z,9.53
2019-05-03T09:51:39.409Z,10.98
2019-05-03T09:54:14.833Z,11.35
2019-05-03T09:57:00.147Z,9.83
2019-05-03T09:59:30.669Z,11.43
2019-05-03T10:02:01.982Z,11.20
2019-05-03T10:04:31.658Z,8.80
2019-05-03T10:07:01.321Z,12.13
2019-05-03T10:09:30.945Z,14.90
2019-05-03T10:12:01.764Z,12.20
2019-05-03T10:14:31.459Z,10.65
2019-05-03T10:17:04.954Z,13.13
2019-05-03T10:19:39.956Z,12.10
2019-05-03T10:22:06.257Z,12.37
2019-05-03T10:24:36.058Z,11.70
2019-05-03T10:27:05.904Z,11.33
2019-05-03T10:29:35.699Z,11.93
2019-05-03T10:32:10.141Z,11.38
2019-05-03T10:34:41.431Z,11.60
2019-05-03T10:37:15.073Z,11.05
2019-05-03T10:39:45.516Z,12.15
2019-05-03T10:42:15.243Z,10.98
2019-05-03T10:44:45.031Z,12.30
2019-05-03T10:47:14.805Z,9.03
2019-05-03T10:49:45.773Z,13.05
2019-05-03T10:52:16.783Z,12.73
2019-05-03T10:54:46.411Z,10.53
2019-05-03T10:57:20.524Z,11.20
2019-05-03T10:59:50.146Z,13.08
2019-05-03T11:02:25.444Z,10.48
2019-05-03T11:04:55.234Z,12.88
2019-05-03T11:07:25.716Z,17.48
2019-05-03T11:09:55.566Z,12.00
2019-05-03T11:12:25.522Z,14.28
2019-05-03T11:14:55.221Z,11.65
2019-05-03T11:17:25.610Z,12.30
2019-05-03T11:19:55.379Z,13.40
2019-05-03T11:22:25.355Z,11.55
2019-05-03T11:24:55.147Z,11.48
2019-05-03T11:27:26.428Z,13.88
2019-05-03T11:29:56.913Z,9.98
2019-05-03T11:32:35.399Z,13.30
2019-05-03T11:35:11.650Z,11.53
2019-05-03T11:37:48.675Z,10.63
2019-05-03T11:40:18.529Z,9.85
2019-05-03T11:42:48.927Z,11.48
2019-05-03T11:45:19.683Z,9.68
2019-05-03T11:47:49.309Z,11.53
2019-05-03T11:50:19.190Z,9.75
2019-05-03T11:52:48.888Z,11.85
2019-05-03T11:55:18.590Z,10.75
2019-05-03T11:57:48.294Z,8.68
2019-05-03T12:00:25.283Z,12.03
2019-05-03T12:02:56.613Z,8.23
2019-05-03T12:05:27.876Z,9.48
2019-05-03T12:07:57.529Z,13.13
2019-05-03T12:10:50.230Z,8.88
2019-05-03T12:13:06.003Z,8.75
2019-05-03T12:15:35.696Z,8.00
2019-05-03T12:18:08.014Z,9.65
2019-05-03T12:20:39.524Z,7.78
2019-05-03T12:23:10.364Z,8.95
2019-05-03T12:25:41.017Z,8.83
2019-05-03T12:28:11.269Z,12.23
2019-05-03T12:30:41.387Z,10.03
2019-05-03T12:33:11.197Z,10.32
2019-05-03T12:35:40.837Z,7.53
2019-05-03T12:38:10.458Z,10.38
2019-05-03T12:40:40.109Z,8.10
2019-05-03T12:43:09.874Z,10.35
2019-05-03T12:45:39.540Z,7.85
2019-05-03T12:48:09.173Z,9.03
2019-05-03T12:50:39.061Z,8.78
2019-05-03T12:53:09.039Z,7.03
2019-05-03T12:55:38.663Z,9.35
2019-05-03T12:58:08.375Z,7.85
2019-05-03T13:00:42.043Z,9.15
2019-05-03T13:03:15.251Z,8.98
2019-05-03T13:05:45.059Z,7.12
2019-05-03T13:08:40.520Z,5.83
2019-05-03T13:11:10.359Z,7.95
2019-05-03T13:13:40.010Z,7.25
2019-05-03T13:16:11.508Z,8.18
2019-05-03T13:18:41.184Z,5.60
2019-05-03T13:21:10.926Z,7.70
2019-05-03T13:23:40.554Z,8.85
2019-05-03T13:26:10.196Z,6.80
2019-05-03T13:28:39.821Z,6.15
2019-05-03T13:31:09.541Z,8.45
2019-05-03T13:33:39.228Z,6.22
2019-05-03T13:36:08.902Z,7.15
2019-05-03T13:38:38.535Z,7.67
2019-05-03T13:41:08.182Z,9.50
2019-05-03T13:43:37.870Z,6.42
2019-05-03T13:46:07.976Z,6.87
2019-05-03T13:48:45.589Z,9.08
2019-05-03T13:51:08.959Z,7.97
2019-05-03T13:53:38.592Z,9.30
2019-05-03T13:56:08.296Z,6.70
2019-05-03T13:58:37.935Z,6.47
2019-05-03T14:01:07.769Z,5.78
2019-05-03T14:03:37.417Z,9.08
2019-05-03T14:06:09.346Z,5.60
2019-05-03T14:08:38.473Z,6.10
2019-05-03T14:11:08.094Z,6.65
2019-05-03T14:13:37.757Z,5.70
2019-05-03T14:16:07.462Z,7.20
2019-05-03T14:18:37.172Z,5.95
2019-05-03T14:21:24.598Z,5.92
2019-05-03T14:24:07.917Z,8.23
2019-05-03T14:26:37.987Z,7.42
2019-05-03T14:29:08.043Z,7.15
2019-05-03T14:31:37.674Z,6.90
2019-05-03T14:34:07.323Z,6.72
2019-05-03T14:36:37.008Z,5.92
2019-05-03T14:39:10.349Z,9.03
2019-05-03T14:41:40.222Z,5.77
2019-05-03T14:44:09.910Z,5.37
2019-05-03T14:46:39.931Z,6.10
2019-05-03T14:49:09.621Z,6.45
2019-05-03T14:51:39.269Z,8.55
2019-05-03T14:54:10.175Z,10.75
2019-05-03T14:56:45.539Z,7.53
2019-05-03T14:59:34.648Z,9.53
2019-05-03T15:02:24.562Z,6.85
2019-05-03T15:04:54.879Z,7.15
2019-05-03T15:07:25.558Z,7.00
2019-05-03T15:09:55.464Z,7.17
2019-05-03T15:12:25.359Z,7.22
2019-05-03T15:14:54.979Z,7.05
2019-05-03T15:17:24.766Z,7.78
2019-05-03T15:19:54.827Z,7.67
2019-05-03T15:22:25.377Z,7.35
2019-05-03T15:24:55.175Z,40.28
2019-05-03T15:27:25.006Z,21.40
2019-05-03T15:29:55.502Z,17.32
2019-05-03T15:32:25.347Z,11.63
2019-05-03T15:34:55.409Z,7.40
2019-05-03T15:37:25.647Z,6.90
2019-05-03T15:39:55.507Z,6.75
2019-05-03T15:42:26.703Z,6.00
2019-05-03T15:44:57.960Z,6.78
2019-05-03T15:47:29.258Z,5.22
2019-05-03T15:49:58.878Z,5.85
2019-05-03T15:52:28.529Z,6.20
2019-05-03T15:54:58.225Z,7.75
2019-05-03T15:57:27.870Z,6.00
2019-05-03T15:59:57.494Z,5.03
2019-05-03T16:02:27.221Z,5.67
2019-05-03T16:04:58.744Z,5.28
2019-05-03T16:07:28.214Z,4.80
2019-05-03T16:09:57.835Z,5.67
2019-05-03T16:12:27.505Z,5.25
2019-05-03T16:14:57.131Z,5.45
2019-05-03T16:17:26.751Z,6.83
2019-05-03T16:19:56.404Z,5.53
2019-05-03T16:22:26.194Z,6.35
2019-05-03T16:24:55.851Z,4.83
2019-05-03T16:27:25.247Z,7.78
2019-05-03T16:29:54.987Z,5.92
2019-05-03T16:32:24.600Z,5.72
2019-05-03T16:34:55.024Z,8.05
2019-05-03T16:37:25.508Z,6.12
2019-05-03T16:39:57.730Z,6.90
2019-05-03T16:42:26.656Z,6.90
2019-05-03T16:44:56.306Z,6.67
2019-05-03T16:47:25.944Z,6.78
2019-05-03T16:49:55.573Z,28.45
2019-05-03T16:52:25.654Z,37.90
2019-05-03T16:54:55.440Z,33.20
2019-05-03T16:57:25.097Z,25.92
2019-05-03T16:59:55.082Z,15.18
2019-05-03T17:02:24.854Z,10.75
2019-05-03T17:04:56.124Z,9.88
2019-05-03T17:07:30.162Z,13.25
2019-05-03T17:10:07.475Z,10.48
2019-05-03T17:12:38.480Z,12.30
2019-05-03T17:15:10.483Z,12.28
2019-05-03T17:17:40.105Z,7.35
2019-05-03T17:20:10.566Z,7.33
2019-05-03T17:22:40.185Z,7.15
2019-05-03T17:25:09.916Z,4.62
2019-05-03T17:27:39.538Z,7.78
2019-05-03T17:30:09.690Z,5.37
2019-05-03T17:32:39.400Z,7.05
2019-05-03T17:35:09.180Z,6.65
2019-05-03T17:37:38.797Z,4.42
2019-05-03T17:40:25.875Z,4.83
2019-05-03T17:43:12.138Z,8.50
2019-05-03T17:45:46.079Z,4.22
2019-05-03T17:48:15.701Z,5.33
2019-05-03T17:50:45.527Z,4.78
2019-05-03T17:53:34.554Z,4.00
2019-05-03T17:56:12.203Z,10.85
2019-05-03T17:58:41.591Z,6.97
2019-05-03T18:01:28.057Z,7.55
2019-05-03T18:04:06.603Z,6.30
2019-05-03T18:06:41.207Z,9.48
2019-05-03T18:09:15.247Z,5.28
2019-05-03T18:11:46.517Z,5.28
2019-05-03T18:14:16.170Z,4.53
2019-05-03T18:16:45.802Z,4.20
2019-05-03T18:19:15.456Z,4.05
2019-05-03T18:21:45.067Z,6.90
2019-05-03T18:24:15.391Z,4.20
2019-05-03T18:26:45.112Z,4.50
2019-05-03T18:29:14.795Z,6.62
2019-05-03T18:31:44.656Z,5.55
2019-05-03T18:34:21.526Z,4.28
2019-05-03T18:36:45.689Z,4.72
2019-05-03T18:39:15.386Z,4.87
2019-05-03T18:41:45.279Z,3.72
2019-05-03T18:44:16.667Z,3.52
2019-05-03T18:46:50.767Z,4.70
2019-05-03T18:49:20.400Z,3.50
2019-05-03T18:51:50.042Z,5.05
2019-05-03T18:54:19.660Z,5.35
2019-05-03T18:56:49.371Z,7.10
2019-05-03T18:59:19.003Z,5.25
2019-05-03T19:01:48.653Z,4.42
2019-05-03T19:04:31.285Z,6.90
2019-05-03T19:07:01.955Z,5.53
2019-05-03T19:09:25.062Z,6.33
2019-05-03T19:11:57.205Z,16.95
2019-05-03T19:14:28.011Z,87.45
2019-05-03T19:17:15.390Z,178.07
2019-05-03T19:19:49.809Z,115.30
2019-05-03T19:24:48.309Z,33.75
2019-05-03T19:27:19.480Z,15.78
2019-05-03T19:29:49.163Z,7.70
2019-05-03T19:32:18.892Z,6.00
2019-05-03T19:34:51.389Z,6.75
2019-05-03T19:37:19.906Z,5.15
2019-05-03T19:39:49.538Z,7.35
2019-05-03T19:42:19.166Z,5.05
2019-05-03T19:44:48.984Z,5.42
2019-05-03T19:47:18.615Z,6.92
2019-05-03T19:49:48.237Z,5.50
2019-05-03T19:52:19.528Z,5.30
2019-05-03T19:54:49.151Z,7.33
2019-05-03T19:57:20.438Z,6.90
2019-05-03T19:59:56.944Z,5.65
2019-05-03T20:02:45.263Z,8.48
2019-05-03T20:05:31.590Z,7.45
2019-05-03T20:08:05.527Z,6.15
2019-05-03T20:10:35.524Z,7.40
2019-05-03T20:13:05.381Z,6.67
2019-05-03T20:15:35.004Z,6.20
2019-05-03T20:18:04.966Z,5.75
2019-05-03T20:20:36.263Z,5.50
2019-05-03T20:23:05.906Z,8.83
2019-05-03T20:25:35.531Z,6.42
2019-05-03T20:28:05.548Z,6.17
2019-05-03T20:30:35.724Z,6.90
2019-05-03T20:33:05.530Z,6.60
2019-05-03T20:35:35.749Z,6.97
2019-05-03T20:38:05.428Z,9.90
2019-05-03T20:40:35.207Z,6.00
2019-05-03T20:43:22.748Z,9.60
2019-05-03T20:45:54.761Z,8.13
2019-05-03T20:48:25.012Z,7.78
2019-05-03T20:50:55.181Z,9.35
2019-05-03T20:53:25.158Z,9.48
2019-05-03T20:55:56.526Z,9.40
2019-05-03T20:58:26.160Z,10.18
2019-05-03T21:00:55.937Z,7.80
2019-05-03T21:03:25.559Z,8.53
2019-05-03T21:05:55.391Z,10.00
2019-05-03T21:08:25.560Z,7.92
2019-05-03T21:10:55.337Z,9.58
2019-05-03T21:13:33.172Z,9.40
2019-05-03T21:16:08.066Z,7.50
2019-05-03T21:19:04.978Z,9.63
2019-05-03T21:21:38.919Z,11.12
2019-05-03T21:24:26.364Z,8.15
2019-05-03T21:26:56.357Z,7.87
2019-05-03T21:29:26.000Z,8.80
2019-05-03T21:31:55.622Z,8.13
2019-05-03T21:34:25.305Z,9.10
2019-05-03T21:36:54.966Z,7.95
2019-05-03T21:39:24.813Z,9.63
2019-05-03T21:41:55.581Z,8.08
2019-05-03T21:44:32.354Z,8.25
2019-05-03T21:47:04.719Z,8.65
2019-05-03T21:49:44.867Z,8.25
2019-05-03T21:52:14.730Z,7.17
2019-05-03T21:54:45.102Z,8.58
2019-05-03T21:57:16.579Z,6.90
2019-05-03T21:59:46.123Z,6.45
2019-05-03T22:02:15.778Z,9.10
2019-05-03T22:04:45.463Z,8.08
2019-05-03T22:07:15.110Z,8.50
2019-05-03T22:09:45.297Z,8.20
2019-05-03T22:12:15.156Z,8.38
2019-05-03T22:14:46.420Z,5.47
2019-05-03T22:17:22.952Z,8.23
2019-05-03T22:19:54.586Z,9.00
2019-05-03T22:22:45.241Z,8.70
2019-05-03T22:25:16.561Z,8.70
2019-05-03T22:27:46.229Z,6.53
2019-05-03T22:30:16.153Z,7.22
2019-05-03T22:32:45.785Z,7.40
2019-05-03T22:35:15.745Z,6.53
2019-05-03T22:37:45.437Z,7.08
2019-05-03T22:40:15.151Z,6.83
2019-05-03T22:42:44.950Z,5.97
2019-05-03T22:45:14.741Z,6.97
2019-05-03T22:47:44.636Z,6.08
2019-05-03T22:50:14.872Z,7.22
2019-05-03T22:52:45.522Z,8.63
2019-05-03T22:55:15.509Z,9.25
2019-05-03T22:57:45.127Z,5.87
2019-05-03T23:00:15.556Z,7.58
2019-05-03T23:02:45.630Z,5.80
2019-05-03T23:05:15.440Z,4.58
2019-05-03T23:07:46.933Z,4.40
2019-05-03T23:10:17.405Z,4.50
2019-05-03T23:12:47.246Z,5.17
2019-05-03T23:15:17.177Z,4.25
2019-05-03T23:17:46.831Z,5.55
2019-05-03T23:20:26.791Z,7.30
2019-05-03T23:22:56.439Z,6.05
2019-05-03T23:25:26.059Z,6.58
2019-05-03T23:27:55.768Z,6.85
2019-05-03T23:30:25.393Z,8.48
2019-05-03T23:32:55.014Z,6.25
2019-05-03T23:35:24.803Z,9.08
2019-05-03T23:37:54.505Z,7.83
2019-05-03T23:40:25.409Z,8.23
2019-05-03T23:42:55.159Z,7.47
2019-05-03T23:45:25.556Z,6.30
2019-05-03T23:47:55.307Z,5.05
2019-05-03T23:50:25.043Z,7.80
2019-05-03T23:52:54.659Z,3.90
2019-05-03T23:55:31.938Z,5.33
2019-05-03T23:58:01.552Z,4.78
